Aeroporto :
LOGIN :

Iscrizione | Disclaimer

   EN    FR    IT 

 










Sommario :    VFR   VFR Marginale   IFR   IFR Intensivo   IFR Molto Intensivo
Visibilità : 
Base nubi : 
>= 8 km
>= 3000ft
5 / 8 km
1000 / 3000 ft
1500m / 5 km
500 / 1000 ft
800 / 1500m
200 / 500 ft
< 800m
< 200 ft
Simboli :   Temporali  Nebbia  Neve Forte  Precipitazioni Forti  Vento > 20 kt
SIGMETs :   Varie  Temporali  Ghiacco  Turbolenza  Onda orograficha  Ceneri Vulcaniche






- Altitudine del aeroporto : 172 ft
- Codice IATA : ODS


UKOO - Odesa

ULTIMO METAR :
  • 031900Z 20004MPS CAVOK 06/01 Q1015 R16/090060 NOSIG

METARs OBSOLETI :
  • 031830Z 20004MPS CAVOK 06/01 Q1015 R16/090060 NOSIG
  • 031800Z 20005MPS CAVOK 05/M01 Q1015 R16/090060 NOSIG
  • 031730Z 19005MPS CAVOK 05/M02 Q1015 R16/090060 NOSIG
  • 031700Z 18004MPS CAVOK 06/M02 Q1015 R16/090060 NOSIG
  • 031630Z 18005MPS CAVOK 06/M01 Q1014 R16/090060 NOSIG

TAF TAF UKOO
Valido dal 03 a 18 ore il 04 a 18 ore UTC


031704Z 0318/0418 18003MPS 2100 BR SCT010 TX13/0411Z TN00/0403Z
BECMG 0321/0322 24003MPS
BECMG 0405/0406 15003MPS 6000 NSW



MetMap, La meteo Aeronautica in un colpo d'occhio ! - Copyright ORBIFLY Dicembre 2007 - Disclaimer

ORBIFLY MET'MAP TEAM :

Programmazione e sviluppo : Alexandra Zaïnal
Concezione : Baudouin d'Aumeries
Aiuto per la programmazione : Marc-Olivier Méhu
Supporto tecnico e logistico : Manuel Goepfert
Aiuto per la traduzione : Arnaldo La Scala

Contatto : metmap@orbifly.com




FONTI E CREDITI :

   NOAA